CONNECT WITH FLYNQY PILOT TRAINING

Newquay Five Day Forecast

This Weather Widget is provided by the Met Office

EGHQ TAF and METAR

METAR

EGHQ 271850Z 23008KT 9999 FEW022 14/11 Q1010

TAF

TAF EGHQ 271700Z 2718/2721 26009KT 9999 FEW025